Whitakers, NC (27891)

11:35 PM EDT on August 29, 2016 (GMT -0400)
City Lake -- Rocky Mount | | Change Station

Elev 123 ft 35.95 °N, 77.82 °W | Updated 9 seconds ago

Scattered Clouds
Scattered Clouds
76.6 °F
Feels Like 77 °F
N
0.4
Wind Variable Wind from NE
Gusts 2.5 mph

Today
High -- | Low -- °F
--% Chance of Precip.
Yesterday
High -- | Low -- °F
Precip. -- in
Pressure 30.10 in
Visibility 10.0 miles
Clouds Scattered Clouds 2200 ft
Heat Index 77 °F
Dew Point 74 °F
Humidity 91%
Rainfall 0.00 in
Snow Depth Not available.
6:40 AM 7:42 PM
Waning Crescent, 5% visible
METAR KETC 300320Z AUTO 00000KT 10SM SCT022 23/22 A3010 RMK AO2 T02250221
Pressure 30.10 in
Visibility 10.0 miles
Clouds Scattered Clouds 2200 ft
Heat Index 77 °F
Dew Point 74 °F
Humidity 91%
Rainfall 0.00 in
Snow Depth Not available.
6:40 AM 7:42 PM
Waning Crescent, 5% visible
METAR KETC 300320Z AUTO 00000KT 10SM SCT022 23/22 A3010 RMK AO2 T02250221

10-Day Weather Forecast

Almanac

Astronomy

Aug. 29, 2016 Rise Set
Actual Time
Civil Twilight
Nautical Twilight
Astronomical Twilight
Moon
Length of Visible Light
Length of Day
Tomorrow will be .
, % of the Moon is Illuminated

Today's Extremes

State Highs State Lows

Community

WunderPhotos

Upload Photos

1,935,782 photos uploaded!

WunderBlog® & News

Nearby

Air Quality

  Air Quality AQ Index Pollutant
Not available.

Snow Depth

Station Depth Elevation

Earthquake Activity

City Distance Mag. Time & Date
Minimum magnitude displayed is 2.5.

Coastal Water Temperatures

Place Temperature

Stations

Nearby Weather Stations

Station Location Temp. Windchill Dew Point Humidity Wind Precip. Elev Updated Type
                   

Watches & Warnings

There are currently no watches in effect.